Wilson Heron — 9HJW9 — position and weather

sailwx.info

Track history (hours):
 
Tides and Currents Weather Stations Pressure Air Temp Water Temp Dewpoint Dewpoint Depression Visibility Wind Speed Wind Dir Waves Ship Positions

Wilson Heron

Last reported at 2017-Jul-21 19:15 UTC. Time now 2017-Jul-23 08:47 UTC.
Position N 39°25' W 009°51'.

Length 91 m; draft 6.1 m.

Type: Cargo ship. MMSI: 249075000.

Date/timePositionNaut miles runAvg speedWind from/ knotsBaromVisibWave heightAir tempDewpointWater temp
2017-Jul-21 19:15N 39°25' W 009°51'2 7.6
2017-Jul-21 19:00N 39°23' W 009°51'4 7.5
2017-Jul-21 18:30N 39°20' W 009°51'4 7.6
2017-Jul-21 18:00N 39°16' W 009°51'4 7.7
2017-Jul-21 17:30N 39°12' W 009°51'4 7.9
2017-Jul-21 17:00N 39°08' W 009°51'4 8.2
2017-Jul-21 16:30N 39°04' W 009°51'4 8.2
2017-Jul-21 16:00N 38°60' W 009°51'4 8.1
2017-Jul-21 15:30N 38°56' W 009°51'4 8.0
2017-Jul-21 15:00N 38°52' W 009°51'4 8.0
2017-Jul-21 14:30N 38°48' W 009°51'4 8.0
2017-Jul-21 14:00N 38°44' W 009°51'4 7.9
2017-Jul-21 13:30N 38°40' W 009°50'4 8.2
2017-Jul-21 13:00N 38°36' W 009°49'4 8.1
2017-Jul-21 12:30N 38°32' W 009°48'4 8.1
2017-Jul-21 12:00N 38°28' W 009°47'4 7.7
2017-Jul-21 11:30N 38°24' W 009°45'4 8.0
2017-Jul-21 11:00N 38°20' W 009°44'4 8.0
2017-Jul-21 10:30N 38°17' W 009°43'4 7.9
2017-Jul-21 10:00N 38°13' W 009°42'4 7.6
2017-Jul-21 09:30N 38°09' W 009°41'4 7.8
2017-Jul-21 09:00N 38°05' W 009°40'4 7.9
2017-Jul-21 08:30N 38°01' W 009°38'4 7.8
2017-Jul-21 08:00N 37°58' W 009°37'4 7.8
2017-Jul-21 07:30N 37°54' W 009°36'4 7.6
2017-Jul-21 07:00N 37°50' W 009°35'4 7.8
2017-Jul-21 06:30N 37°46' W 009°34'4 8.3
2017-Jul-21 06:00N 37°42' W 009°33'4 7.7
2017-Jul-21 05:30N 37°38' W 009°32'38 7.1
2017-Jul-21 00:06N 37°01' W 009°21'1 6.6
2017-Jul-20 23:56N 37°00' W 009°21'22 5.8
2017-Jul-20 20:09N 36°43' W 009°04'2 6.1
2017-Jul-20 19:46N 36°42' W 009°01'2 5.6
2017-Jul-20 19:28N 36°41' W 008°59'4 6.1
2017-Jul-20 18:53N 36°38' W 008°57'2 5.5
2017-Jul-20 18:29N 36°36' W 008°57'  
2017-Jul-17 05:09N 33°39' W 007°36'2 5.8
2017-Jul-17 04:43N 33°41' W 007°38'5 9.1
2017-Jul-17 04:09N 33°46' W 007°38'2 9.6
2017-Jul-17 03:58N 33°48' W 007°37'5 9.8
2017-Jul-17 03:26N 33°52' W 007°39'510.0
2017-Jul-17 02:54N 33°57' W 007°42'410.1
2017-Jul-17 02:28N 34°01' W 007°44'7 9.9
2017-Jul-17 01:43N 34°08' W 007°48'210.0
2017-Jul-17 01:30N 34°10' W 007°49'510.0
2017-Jul-17 00:58N 34°15' W 007°51'5 9.7
2017-Jul-17 00:26N 34°20' W 007°54'4 9.6
2017-Jul-16 23:58N 34°24' W 007°56'5 9.9
2017-Jul-16 23:30N 34°28' W 007°58'610.0
2017-Jul-16 22:56N 34°33' W 008°01'14 9.7
2017-Jul-16 21:31N 34°46' W 008°08'0 9.4
2017-Jul-16 21:30N 34°46' W 008°08'8 9.6
2017-Jul-16 20:39N 34°53' W 008°12'1 9.7
2017-Jul-16 20:30N 34°55' W 008°13'7 9.6
2017-Jul-16 19:48N 35°01' W 008°16'7 9.9
2017-Jul-16 19:06N 35°07' W 008°19'2 9.8
2017-Jul-16 18:52N 35°09' W 008°20'5 9.6
2017-Jul-16 18:20N 35°14' W 008°23'3 9.6
2017-Jul-16 17:58N 35°17' W 008°24'7 9.8
2017-Jul-16 17:18N 35°23' W 008°28'3 9.9
2017-Jul-16 17:00N 35°26' W 008°29'510.2
2017-Jul-16 16:30N 35°31' W 008°32'610.5
2017-Jul-16 15:57N 35°36' W 008°35'410.2
2017-Jul-16 15:30N 35°40' W 008°37'510.4
2017-Jul-16 15:00N 35°45' W 008°40'6 9.9
2017-Jul-16 14:21N 35°51' W 008°43'410.1
2017-Jul-16 13:59N 35°54' W 008°44'610.3
2017-Jul-16 13:24N 35°60' W 008°47'410.2
2017-Jul-16 13:00N 36°03' W 008°50'510.3
2017-Jul-16 12:30N 36°08' W 008°52'510.2
2017-Jul-16 12:00N 36°13' W 008°55'510.1
2017-Jul-16 11:30N 36°17' W 008°57'510.1
2017-Jul-16 11:00N 36°22' W 008°60'510.4
2017-Jul-16 10:30N 36°27' W 009°02'5 9.8
2017-Jul-16 10:00N 36°30' W 009°06'5 9.8
2017-Jul-16 09:30N 36°32' W 009°12'510.2
2017-Jul-16 09:00N 36°34' W 009°18'510.6
2017-Jul-16 08:30N 36°38' W 009°22'510.8
2017-Jul-16 08:00N 36°43' W 009°26'510.7
2017-Jul-16 07:30N 36°47' W 009°31'5 9.7
2017-Jul-16 07:00N 36°51' W 009°33'510.3
2017-Jul-16 06:30N 36°56' W 009°34'510.4
2017-Jul-16 06:00N 37°01' W 009°36'510.4
2017-Jul-16 05:30N 37°06' W 009°37'510.5
2017-Jul-16 05:00N 37°11' W 009°39'510.5
2017-Jul-16 04:30N 37°17' W 009°40'510.6
2017-Jul-16 04:00N 37°22' W 009°42'511.0
2017-Jul-16 03:30N 37°27' W 009°43'510.8
2017-Jul-16 03:00N 37°32' W 009°45'510.7
2017-Jul-16 02:30N 37°37' W 009°46'611.0
2017-Jul-16 02:00N 37°43' W 009°48'611.2
2017-Jul-16 01:30N 37°48' W 009°50'611.5
2017-Jul-16 01:00N 37°54' W 009°51'611.7
2017-Jul-16 00:30N 37°60' W 009°53'611.6
2017-Jul-16 00:00N 38°05' W 009°55'611.6
2017-Jul-15 23:30N 38°11' W 009°57'611.9
2017-Jul-15 23:00N 38°17' W 009°58'611.5
2017-Jul-15 22:30N 38°22' W 009°60'611.3
2017-Jul-15 22:00N 38°28' W 010°02'510.4
2017-Jul-15 21:30N 38°33' W 010°03'510.5
2017-Jul-15 21:00N 38°38' W 010°05'510.3
2017-Jul-15 20:30N 38°43' W 010°05'510.7
2017-Jul-15 20:00N 38°48' W 010°05'510.9
2017-Jul-15 19:30N 38°54' W 010°05'510.7
2017-Jul-15 19:00N 38°59' W 010°06'510.4
2017-Jul-15 18:30N 39°04' W 010°05'510.8
2017-Jul-15 18:00N 39°10' W 010°05'510.3
2017-Jul-15 17:30N 39°15' W 010°06'510.8
2017-Jul-15 17:00N 39°20' W 010°05'610.9
2017-Jul-15 16:30N 39°26' W 010°05'510.8
2017-Jul-15 16:00N 39°31' W 010°05'510.9
2017-Jul-15 15:30N 39°37' W 010°05'610.9
2017-Jul-15 15:00N 39°42' W 010°05'1111.0
2017-Jul-15 14:00N 39°53' W 010°05'711.0
2017-Jul-15 13:21N 40°00' W 010°06'411.0
2017-Jul-15 13:00N 40°04' W 010°06'510.9
2017-Jul-15 12:30N 40°10' W 010°06'511.0
2017-Jul-15 12:00N 40°15' W 010°06'710.9
2017-Jul-15 11:24N 40°22' W 010°06'13110.6
2017-Jul-14 22:59N 42°33' W 010°06'510.5
2017-Jul-14 22:30N 42°38' W 010°06'510.2
2017-Jul-14 21:59N 42°43' W 010°06'510.1
2017-Jul-14 21:29N 42°48' W 010°06'5 9.8
2017-Jul-14 20:56N 42°54' W 010°06'410.0
2017-Jul-14 20:29N 42°58' W 010°07'610.4
2017-Jul-14 19:56N 43°04' W 010°06'510.4
2017-Jul-14 19:28N 43°09' W 010°06'45010.7
2017-Jul-13 01:26N 50°27' W 007°37'511.2
2017-Jul-13 00:57N 50°33' W 007°35'611.3
2017-Jul-13 00:28N 50°38' W 007°33'511.4
2017-Jul-12 23:59N 50°43' W 007°31'511.3
2017-Jul-12 23:30N 50°49' W 007°30'611.2
2017-Jul-12 22:57N 50°54' W 007°26'511.0
2017-Jul-12 22:30N 50°59' W 007°25'510.6
2017-Jul-12 22:00N 51°04' W 007°23'510.4
2017-Jul-12 21:30N 51°09' W 007°21'510.1
2017-Jul-12 21:00N 51°14' W 007°19'510.0
2017-Jul-12 20:30N 51°19' W 007°18'510.0
2017-Jul-12 20:00N 51°24' W 007°17'5 9.3
2017-Jul-12 19:30N 51°29' W 007°15'5 9.6
2017-Jul-12 19:00N 51°33' W 007°12'5 9.9
2017-Jul-12 18:30N 51°38' W 007°10'510.2
2017-Jul-12 18:00N 51°43' W 007°08'510.4
2017-Jul-12 17:30N 51°48' W 007°06'510.6
2017-Jul-12 17:00N 51°53' W 007°04'510.6
2017-Jul-12 16:30N 51°58' W 007°02'510.7
2017-Jul-12 16:00N 52°04' W 007°00'510.4
2017-Jul-12 15:30N 52°09' W 006°58'4 8.7
2017-Jul-12 15:00N 52°13' W 006°56'5 4.0
2017-Jul-12 13:50N 52°16' W 007°02'0 0.0
2017-Jul-12 13:26N 52°16' W 007°02'0 0.0
2017-Jul-12 12:59N 52°16' W 007°02'0 0.0
2017-Jul-12 12:29N 52°16' W 007°02'0 0.0
2017-Jul-12 11:56N 52°16' W 007°02'0 0.0
2017-Jul-12 11:29N 52°16' W 007°02'0 0.0
2017-Jul-12 10:56N 52°16' W 007°02'0 0.0
2017-Jul-12 10:26N 52°16' W 007°02'0 0.0
2017-Jul-12 09:56N 52°16' W 007°02'0 0.0
2017-Jul-12 09:26N 52°16' W 007°02'0 0.0
2017-Jul-12 08:56N 52°16' W 007°02'0 0.0
2017-Jul-12 08:29N 52°16' W 007°02'0 0.0
2017-Jul-12 07:59N 52°16' W 007°02'0 0.0
2017-Jul-12 07:20N 52°16' W 007°02'0 0.0
2017-Jul-12 06:56N 52°16' W 007°02'0 0.0
2017-Jul-12 06:29N 52°16' W 007°02'0 0.0
2017-Jul-12 05:59N 52°16' W 007°02'0 0.0
2017-Jul-12 05:29N 52°16' W 007°02'0 0.0
2017-Jul-12 04:59N 52°16' W 007°02'0 0.0
2017-Jul-12 04:26N 52°16' W 007°02'0 0.0
2017-Jul-12 03:59N 52°16' W 007°02'0 0.0
2017-Jul-12 03:29N 52°16' W 007°02'0 0.0
2017-Jul-12 02:59N 52°16' W 007°02'0 0.0
2017-Jul-12 02:26N 52°16' W 007°02'0 0.0
2017-Jul-12 01:59N 52°16' W 007°02'0 0.0
2017-Jul-12 01:29N 52°16' W 007°02'0 0.0
2017-Jul-12 00:59N 52°16' W 007°02'0 0.0
2017-Jul-12 00:29N 52°16' W 007°02'0 0.0
2017-Jul-11 23:56N 52°16' W 007°02'0 0.0
2017-Jul-11 23:29N 52°16' W 007°02'0 0.0
2017-Jul-11 22:56N 52°16' W 007°02'0 0.0
2017-Jul-11 22:29N 52°16' W 007°02'0 0.0
2017-Jul-11 21:44N 52°16' W 007°02'0 0.0
2017-Jul-11 21:26N 52°16' W 007°02'0 0.0
2017-Jul-11 20:56N 52°16' W 007°02'0 0.0
2017-Jul-11 20:29N 52°16' W 007°02'0 0.0
2017-Jul-11 19:57N 52°16' W 007°02'0 0.0
2017-Jul-11 19:26N 52°16' W 007°02'  
Track history (hours):
 
Tides and Currents Weather Stations Pressure Air Temp Water Temp Dewpoint Dewpoint Depression Visibility Wind Speed Wind Dir Waves Ship Positions

Wilson Heron

Last reported at 2017-Jul-21 19:15 UTC. Time now 2017-Jul-23 08:47 UTC.
Position N 39°25' W 009°51'.

Length 91 m; draft 6.1 m.

Type: Cargo ship. MMSI: 249075000.

Date/timePositionNaut miles runAvg speedWind from/ knotsBaromVisibWave heightAir tempDewpointWater temp
2017-Jul-21 19:15N 39°25' W 009°51'2 7.6
2017-Jul-21 19:00N 39°23' W 009°51'4 7.5
2017-Jul-21 18:30N 39°20' W 009°51'4 7.6
2017-Jul-21 18:00N 39°16' W 009°51'4 7.7
2017-Jul-21 17:30N 39°12' W 009°51'4 7.9
2017-Jul-21 17:00N 39°08' W 009°51'4 8.2
2017-Jul-21 16:30N 39°04' W 009°51'4 8.2
2017-Jul-21 16:00N 38°60' W 009°51'4 8.1
2017-Jul-21 15:30N 38°56' W 009°51'4 8.0
2017-Jul-21 15:00N 38°52' W 009°51'4 8.0
2017-Jul-21 14:30N 38°48' W 009°51'4 8.0
2017-Jul-21 14:00N 38°44' W 009°51'4 7.9
2017-Jul-21 13:30N 38°40' W 009°50'4 8.2
2017-Jul-21 13:00N 38°36' W 009°49'4 8.1
2017-Jul-21 12:30N 38°32' W 009°48'4 8.1
2017-Jul-21 12:00N 38°28' W 009°47'4 7.7
2017-Jul-21 11:30N 38°24' W 009°45'4 8.0
2017-Jul-21 11:00N 38°20' W 009°44'4 8.0
2017-Jul-21 10:30N 38°17' W 009°43'4 7.9
2017-Jul-21 10:00N 38°13' W 009°42'4 7.6
2017-Jul-21 09:30N 38°09' W 009°41'4 7.8
2017-Jul-21 09:00N 38°05' W 009°40'4 7.9
2017-Jul-21 08:30N 38°01' W 009°38'4 7.8
2017-Jul-21 08:00N 37°58' W 009°37'4 7.8
2017-Jul-21 07:30N 37°54' W 009°36'4 7.6
2017-Jul-21 07:00N 37°50' W 009°35'4 7.8
2017-Jul-21 06:30N 37°46' W 009°34'4 8.3
2017-Jul-21 06:00N 37°42' W 009°33'4 7.7
2017-Jul-21 05:30N 37°38' W 009°32'38 7.1
2017-Jul-21 00:06N 37°01' W 009°21'1 6.6
2017-Jul-20 23:56N 37°00' W 009°21'22 5.8
2017-Jul-20 20:09N 36°43' W 009°04'2 6.1
2017-Jul-20 19:46N 36°42' W 009°01'2 5.6
2017-Jul-20 19:28N 36°41' W 008°59'4 6.1
2017-Jul-20 18:53N 36°38' W 008°57'2 5.5
2017-Jul-20 18:29N 36°36' W 008°57'  
2017-Jul-17 05:09N 33°39' W 007°36'2 5.8
2017-Jul-17 04:43N 33°41' W 007°38'5 9.1
2017-Jul-17 04:09N 33°46' W 007°38'2 9.6
2017-Jul-17 03:58N 33°48' W 007°37'5 9.8
2017-Jul-17 03:26N 33°52' W 007°39'510.0
2017-Jul-17 02:54N 33°57' W 007°42'410.1
2017-Jul-17 02:28N 34°01' W 007°44'7 9.9
2017-Jul-17 01:43N 34°08' W 007°48'210.0
2017-Jul-17 01:30N 34°10' W 007°49'510.0
2017-Jul-17 00:58N 34°15' W 007°51'5 9.7
2017-Jul-17 00:26N 34°20' W 007°54'4 9.6
2017-Jul-16 23:58N 34°24' W 007°56'5 9.9
2017-Jul-16 23:30N 34°28' W 007°58'610.0
2017-Jul-16 22:56N 34°33' W 008°01'14 9.7
2017-Jul-16 21:31N 34°46' W 008°08'0 9.4
2017-Jul-16 21:30N 34°46' W 008°08'8 9.6
2017-Jul-16 20:39N 34°53' W 008°12'1 9.7
2017-Jul-16 20:30N 34°55' W 008°13'7 9.6
2017-Jul-16 19:48N 35°01' W 008°16'7 9.9
2017-Jul-16 19:06N 35°07' W 008°19'2 9.8
2017-Jul-16 18:52N 35°09' W 008°20'5 9.6
2017-Jul-16 18:20N 35°14' W 008°23'3 9.6
2017-Jul-16 17:58N 35°17' W 008°24'7 9.8
2017-Jul-16 17:18N 35°23' W 008°28'3 9.9
2017-Jul-16 17:00N 35°26' W 008°29'510.2
2017-Jul-16 16:30N 35°31' W 008°32'610.5
2017-Jul-16 15:57N 35°36' W 008°35'410.2
2017-Jul-16 15:30N 35°40' W 008°37'510.4
2017-Jul-16 15:00N 35°45' W 008°40'6 9.9
2017-Jul-16 14:21N 35°51' W 008°43'410.1
2017-Jul-16 13:59N 35°54' W 008°44'610.3
2017-Jul-16 13:24N 35°60' W 008°47'410.2
2017-Jul-16 13:00N 36°03' W 008°50'510.3
2017-Jul-16 12:30N 36°08' W 008°52'510.2
2017-Jul-16 12:00N 36°13' W 008°55'510.1
2017-Jul-16 11:30N 36°17' W 008°57'510.1
2017-Jul-16 11:00N 36°22' W 008°60'510.4
2017-Jul-16 10:30N 36°27' W 009°02'5 9.8
2017-Jul-16 10:00N 36°30' W 009°06'5 9.8
2017-Jul-16 09:30N 36°32' W 009°12'510.2
2017-Jul-16 09:00N 36°34' W 009°18'510.6
2017-Jul-16 08:30N 36°38' W 009°22'510.8
2017-Jul-16 08:00N 36°43' W 009°26'510.7
2017-Jul-16 07:30N 36°47' W 009°31'5 9.7
2017-Jul-16 07:00N 36°51' W 009°33'510.3
2017-Jul-16 06:30N 36°56' W 009°34'510.4
2017-Jul-16 06:00N 37°01' W 009°36'510.4
2017-Jul-16 05:30N 37°06' W 009°37'510.5
2017-Jul-16 05:00N 37°11' W 009°39'510.5
2017-Jul-16 04:30N 37°17' W 009°40'510.6
2017-Jul-16 04:00N 37°22' W 009°42'511.0
2017-Jul-16 03:30N 37°27' W 009°43'510.8
2017-Jul-16 03:00N 37°32' W 009°45'510.7
2017-Jul-16 02:30N 37°37' W 009°46'611.0
2017-Jul-16 02:00N 37°43' W 009°48'611.2
2017-Jul-16 01:30N 37°48' W 009°50'611.5
2017-Jul-16 01:00N 37°54' W 009°51'611.7
2017-Jul-16 00:30N 37°60' W 009°53'611.6
2017-Jul-16 00:00N 38°05' W 009°55'611.6
2017-Jul-15 23:30N 38°11' W 009°57'611.9
2017-Jul-15 23:00N 38°17' W 009°58'611.5
2017-Jul-15 22:30N 38°22' W 009°60'611.3
2017-Jul-15 22:00N 38°28' W 010°02'510.4
2017-Jul-15 21:30N 38°33' W 010°03'510.5
2017-Jul-15 21:00N 38°38' W 010°05'510.3
2017-Jul-15 20:30N 38°43' W 010°05'510.7
2017-Jul-15 20:00N 38°48' W 010°05'510.9
2017-Jul-15 19:30N 38°54' W 010°05'510.7
2017-Jul-15 19:00N 38°59' W 010°06'510.4
2017-Jul-15 18:30N 39°04' W 010°05'510.8
2017-Jul-15 18:00N 39°10' W 010°05'510.3
2017-Jul-15 17:30N 39°15' W 010°06'510.8
2017-Jul-15 17:00N 39°20' W 010°05'610.9
2017-Jul-15 16:30N 39°26' W 010°05'510.8
2017-Jul-15 16:00N 39°31' W 010°05'510.9
2017-Jul-15 15:30N 39°37' W 010°05'610.9
2017-Jul-15 15:00N 39°42' W 010°05'1111.0
2017-Jul-15 14:00N 39°53' W 010°05'711.0
2017-Jul-15 13:21N 40°00' W 010°06'411.0
2017-Jul-15 13:00N 40°04' W 010°06'510.9
2017-Jul-15 12:30N 40°10' W 010°06'511.0
2017-Jul-15 12:00N 40°15' W 010°06'710.9
2017-Jul-15 11:24N 40°22' W 010°06'13110.6
2017-Jul-14 22:59N 42°33' W 010°06'510.5
2017-Jul-14 22:30N 42°38' W 010°06'510.2
2017-Jul-14 21:59N 42°43' W 010°06'510.1
2017-Jul-14 21:29N 42°48' W 010°06'5 9.8
2017-Jul-14 20:56N 42°54' W 010°06'410.0
2017-Jul-14 20:29N 42°58' W 010°07'610.4
2017-Jul-14 19:56N 43°04' W 010°06'510.4
2017-Jul-14 19:28N 43°09' W 010°06'45010.7
2017-Jul-13 01:26N 50°27' W 007°37'511.2
2017-Jul-13 00:57N 50°33' W 007°35'611.3
2017-Jul-13 00:28N 50°38' W 007°33'511.4
2017-Jul-12 23:59N 50°43' W 007°31'511.3
2017-Jul-12 23:30N 50°49' W 007°30'611.2
2017-Jul-12 22:57N 50°54' W 007°26'511.0
2017-Jul-12 22:30N 50°59' W 007°25'510.6
2017-Jul-12 22:00N 51°04' W 007°23'510.4
2017-Jul-12 21:30N 51°09' W 007°21'510.1
2017-Jul-12 21:00N 51°14' W 007°19'510.0
2017-Jul-12 20:30N 51°19' W 007°18'510.0
2017-Jul-12 20:00N 51°24' W 007°17'5 9.3
2017-Jul-12 19:30N 51°29' W 007°15'5 9.6
2017-Jul-12 19:00N 51°33' W 007°12'5 9.9
2017-Jul-12 18:30N 51°38' W 007°10'510.2
2017-Jul-12 18:00N 51°43' W 007°08'510.4
2017-Jul-12 17:30N 51°48' W 007°06'510.6
2017-Jul-12 17:00N 51°53' W 007°04'510.6
2017-Jul-12 16:30N 51°58' W 007°02'510.7
2017-Jul-12 16:00N 52°04' W 007°00'510.4
2017-Jul-12 15:30N 52°09' W 006°58'4 8.7
2017-Jul-12 15:00N 52°13' W 006°56'5 4.0
2017-Jul-12 13:50N 52°16' W 007°02'0 0.0
2017-Jul-12 13:26N 52°16' W 007°02'0 0.0
2017-Jul-12 12:59N 52°16' W 007°02'0 0.0
2017-Jul-12 12:29N 52°16' W 007°02'0 0.0
2017-Jul-12 11:56N 52°16' W 007°02'0 0.0
2017-Jul-12 11:29N 52°16' W 007°02'0 0.0
2017-Jul-12 10:56N 52°16' W 007°02'0 0.0
2017-Jul-12 10:26N 52°16' W 007°02'0 0.0
2017-Jul-12 09:56N 52°16' W 007°02'0 0.0
2017-Jul-12 09:26N 52°16' W 007°02'0 0.0
2017-Jul-12 08:56N 52°16' W 007°02'0 0.0
2017-Jul-12 08:29N 52°16' W 007°02'0 0.0
2017-Jul-12 07:59N 52°16' W 007°02'0 0.0
2017-Jul-12 07:20N 52°16' W 007°02'0 0.0
2017-Jul-12 06:56N 52°16' W 007°02'0 0.0
2017-Jul-12 06:29N 52°16' W 007°02'0 0.0
2017-Jul-12 05:59N 52°16' W 007°02'0 0.0
2017-Jul-12 05:29N 52°16' W 007°02'0 0.0
2017-Jul-12 04:59N 52°16' W 007°02'0 0.0
2017-Jul-12 04:26N 52°16' W 007°02'0 0.0
2017-Jul-12 03:59N 52°16' W 007°02'0 0.0
2017-Jul-12 03:29N 52°16' W 007°02'0 0.0
2017-Jul-12 02:59N 52°16' W 007°02'0 0.0
2017-Jul-12 02:26N 52°16' W 007°02'0 0.0
2017-Jul-12 01:59N 52°16' W 007°02'0 0.0
2017-Jul-12 01:29N 52°16' W 007°02'0 0.0
2017-Jul-12 00:59N 52°16' W 007°02'0 0.0
2017-Jul-12 00:29N 52°16' W 007°02'0 0.0
2017-Jul-11 23:56N 52°16' W 007°02'0 0.0
2017-Jul-11 23:29N 52°16' W 007°02'0 0.0
2017-Jul-11 22:56N 52°16' W 007°02'0 0.0
2017-Jul-11 22:29N 52°16' W 007°02'0 0.0
2017-Jul-11 21:44N 52°16' W 007°02'0 0.0
2017-Jul-11 21:26N 52°16' W 007°02'0 0.0
2017-Jul-11 20:56N 52°16' W 007°02'0 0.0
2017-Jul-11 20:29N 52°16' W 007°02'0 0.0
2017-Jul-11 19:57N 52°16' W 007°02'0 0.0
2017-Jul-11 19:26N 52°16' W 007°02'  

Dump ship's entire track history